createdAt,value
2022-11-24T00:00:37.160Z,95.57
2022-11-24T00:03:05.870Z,91.23
2022-11-24T00:05:33.178Z,89.47
2022-11-24T00:08:00.326Z,97.63
2022-11-24T00:10:27.483Z,98.80
2022-11-24T00:12:54.671Z,91.40
2022-11-24T00:15:21.966Z,105.60
2022-11-24T00:17:49.136Z,104.13
2022-11-24T00:20:16.423Z,89.13
2022-11-24T00:22:43.583Z,86.67
2022-11-24T00:25:10.744Z,77.13
2022-11-24T00:27:38.003Z,91.30
2022-11-24T00:30:05.319Z,81.07
2022-11-24T00:32:32.476Z,89.27
2022-11-24T00:34:59.724Z,71.30
2022-11-24T00:37:26.888Z,75.97
2022-11-24T00:39:54.034Z,73.13
2022-11-24T00:42:21.224Z,84.03
2022-11-24T00:44:48.391Z,75.10
2022-11-24T00:47:15.580Z,75.97
2022-11-24T00:49:42.786Z,91.73
2022-11-24T00:52:09.944Z,98.77
2022-11-24T00:54:37.135Z,82.70
2022-11-24T00:57:04.325Z,81.77
2022-11-24T00:59:32.653Z,78.33
2022-11-24T01:01:59.861Z,82.23
2022-11-24T01:04:27.136Z,89.60
2022-11-24T01:06:54.294Z,98.83
2022-11-24T01:09:21.505Z,96.20
2022-11-24T01:12:04.309Z,86.40
2022-11-24T01:14:32.471Z,83.90
2022-11-24T01:16:59.949Z,83.13
2022-11-24T01:19:27.165Z,77.23
2022-11-24T01:21:54.396Z,78.57
2022-11-24T01:24:21.644Z,78.80
2022-11-24T01:26:48.823Z,77.87
2022-11-24T01:29:16.035Z,75.27
2022-11-24T01:31:43.203Z,68.93
2022-11-24T01:34:10.409Z,75.30
2022-11-24T01:36:37.581Z,71.77
2022-11-24T01:39:04.780Z,58.70
2022-11-24T01:41:31.961Z,71.97
2022-11-24T01:43:59.197Z,68.17
2022-11-24T01:46:30.178Z,68.50
2022-11-24T01:49:03.290Z,65.00
2022-11-24T01:51:30.877Z,66.40
2022-11-24T01:54:02.154Z,72.90
2022-11-24T01:56:29.397Z,71.33
2022-11-24T01:58:57.205Z,65.47
2022-11-24T02:01:24.574Z,71.10
2022-11-24T02:03:51.830Z,73.47
2022-11-24T02:06:20.582Z,69.30
2022-11-24T02:08:59.879Z,66.83
2022-11-24T02:11:27.704Z,60.53
2022-11-24T02:13:54.887Z,64.37
2022-11-24T02:16:22.171Z,71.20
2022-11-24T02:18:49.382Z,69.80
2022-11-24T02:21:16.790Z,72.63
2022-11-24T02:23:59.187Z,75.80
2022-11-24T02:26:26.362Z,71.73
2022-11-24T02:28:53.523Z,78.50
2022-11-24T02:31:20.744Z,80.00
2022-11-24T02:33:48.414Z,78.40
2022-11-24T02:36:15.924Z,72.33
2022-11-24T02:38:43.101Z,83.30
2022-11-24T02:41:11.669Z,72.07
2022-11-24T02:43:40.657Z,76.97
2022-11-24T02:46:08.435Z,78.57
2022-11-24T02:48:35.615Z,81.63
2022-11-24T02:51:02.786Z,71.23
2022-11-24T02:53:29.963Z,65.57
2022-11-24T02:55:57.118Z,74.27
2022-11-24T02:58:24.290Z,63.07
2022-11-24T03:00:54.316Z,64.77
2022-11-24T03:03:24.249Z,74.37
2022-11-24T03:05:51.389Z,61.40
2022-11-24T03:08:18.591Z,63.77
2022-11-24T03:10:45.792Z,60.70
2022-11-24T03:13:12.996Z,59.57
2022-11-24T03:15:40.246Z,71.80
2022-11-24T03:18:07.455Z,71.87
2022-11-24T03:20:34.606Z,73.47
2022-11-24T03:23:01.805Z,67.80
2022-11-24T03:25:28.961Z,69.77
2022-11-24T03:27:57.539Z,68.87
2022-11-24T03:30:24.742Z,58.30
2022-11-24T03:32:53.010Z,64.60
2022-11-24T03:35:20.804Z,69.83
2022-11-24T03:37:47.986Z,67.80
2022-11-24T03:40:15.253Z,59.60
2022-11-24T03:42:42.496Z,60.23
2022-11-24T03:45:44.071Z,50.87
2022-11-24T03:47:57.150Z,72.17
2022-11-24T03:50:24.388Z,63.40
2022-11-24T03:52:51.554Z,61.67
2022-11-24T03:55:18.696Z,68.37
2022-11-24T03:57:45.891Z,65.00
2022-11-24T04:00:13.250Z,67.40
2022-11-24T04:02:40.445Z,60.00
2022-11-24T04:05:07.947Z,63.97
2022-11-24T04:07:35.158Z,56.87
2022-11-24T04:10:02.432Z,57.77
2022-11-24T04:12:45.071Z,64.60
2022-11-24T04:15:12.800Z,53.67
2022-11-24T04:17:39.965Z,53.97
2022-11-24T04:20:07.504Z,51.20
2022-11-24T04:22:35.204Z,48.43
2022-11-24T04:25:02.718Z,44.90
2022-11-24T04:27:29.919Z,48.10
2022-11-24T04:29:57.110Z,51.17
2022-11-24T04:32:24.302Z,45.73
2022-11-24T04:34:51.481Z,48.63
2022-11-24T04:37:18.630Z,46.30
2022-11-24T04:39:46.427Z,46.20
2022-11-24T04:42:13.746Z,41.93
2022-11-24T04:44:40.920Z,43.83
2022-11-24T04:47:08.069Z,46.47
2022-11-24T04:49:35.253Z,45.23
2022-11-24T04:52:02.397Z,47.03
2022-11-24T04:54:29.554Z,49.47
2022-11-24T04:56:56.753Z,52.43
2022-11-24T04:59:23.937Z,51.17
2022-11-24T05:01:51.195Z,55.23
2022-11-24T05:04:20.447Z,55.37
2022-11-24T05:06:47.863Z,49.10
2022-11-24T05:09:16.068Z,53.13
2022-11-24T05:11:43.467Z,49.07
2022-11-24T05:14:10.614Z,50.53
2022-11-24T05:16:37.922Z,50.07
2022-11-24T05:19:05.241Z,57.20
2022-11-24T05:21:32.385Z,53.53
2022-11-24T05:23:59.533Z,46.47
2022-11-24T05:26:27.265Z,57.77
2022-11-24T05:28:54.520Z,52.53
2022-11-24T05:31:21.750Z,53.90
2022-11-24T05:33:48.961Z,49.33
2022-11-24T05:36:34.832Z,54.70
2022-11-24T05:39:02.098Z,52.10
2022-11-24T05:41:29.218Z,58.10
2022-11-24T05:43:56.372Z,56.97
2022-11-24T05:46:23.590Z,56.13
2022-11-24T05:48:50.836Z,50.90
2022-11-24T05:51:18.110Z,60.63
2022-11-24T05:53:45.273Z,55.93
2022-11-24T05:56:12.408Z,53.80
2022-11-24T05:58:39.501Z,54.13
2022-11-24T06:01:07.501Z,51.87
2022-11-24T06:03:34.674Z,52.30
2022-11-24T06:06:01.798Z,55.70
2022-11-24T06:08:31.244Z,54.70
2022-11-24T06:11:20.440Z,49.23
2022-11-24T06:13:48.702Z,52.50
2022-11-24T06:16:16.173Z,48.20
2022-11-24T06:18:43.309Z,53.70
2022-11-24T06:21:11.867Z,53.53
2022-11-24T06:23:39.449Z,51.93
2022-11-24T06:26:06.644Z,63.90
2022-11-24T06:28:33.771Z,58.50
2022-11-24T06:31:01.517Z,70.75
2022-11-24T06:33:32.072Z,59.83
2022-11-24T06:36:03.532Z,64.43
2022-11-24T06:38:30.910Z,51.83
2022-11-24T06:41:27.319Z,64.03
2022-11-24T06:43:54.421Z,63.57
2022-11-24T06:46:22.445Z,71.83
2022-11-24T06:48:52.815Z,61.13
2022-11-24T06:51:20.056Z,66.87
2022-11-24T06:53:47.195Z,56.00
2022-11-24T06:56:16.654Z,64.67
2022-11-24T06:58:44.654Z,57.83
2022-11-24T07:01:15.735Z,65.57
2022-11-24T07:03:42.990Z,67.70
2022-11-24T07:06:10.173Z,62.07
2022-11-24T07:08:37.366Z,57.47
2022-11-24T07:11:08.045Z,64.73
2022-11-24T07:13:35.215Z,68.13
2022-11-24T07:16:11.329Z,69.30
2022-11-24T07:18:38.500Z,72.77
2022-11-24T07:21:05.929Z,81.37
2022-11-24T07:23:33.076Z,84.07
2022-11-24T07:26:05.211Z,100.27
2022-11-24T07:28:34.071Z,109.17
2022-11-24T07:31:05.581Z,93.30
2022-11-24T07:33:32.712Z,101.63
2022-11-24T07:36:02.730Z,99.33
2022-11-24T07:38:30.978Z,97.77
2022-11-24T07:41:04.826Z,87.00
2022-11-24T07:43:32.128Z,81.37
2022-11-24T07:45:59.291Z,77.80
2022-11-24T07:48:26.494Z,74.80
2022-11-24T07:50:56.113Z,78.70
2022-11-24T07:53:23.550Z,70.17
2022-11-24T07:55:56.884Z,66.07
2022-11-24T07:58:27.592Z,69.03
2022-11-24T08:00:57.900Z,66.07
2022-11-24T08:03:25.441Z,70.03
2022-11-24T08:08:46.159Z,58.97
2022-11-24T08:11:13.962Z,57.00
2022-11-24T08:13:41.169Z,53.23
2022-11-24T08:16:09.092Z,56.97
2022-11-24T08:18:36.504Z,53.77
2022-11-24T08:21:03.668Z,54.37
2022-11-24T08:23:30.801Z,54.10
2022-11-24T08:26:03.023Z,52.00
2022-11-24T08:28:30.142Z,51.73
2022-11-24T08:31:07.550Z,55.43
2022-11-24T08:33:34.766Z,44.80
2022-11-24T08:36:12.290Z,44.53
2022-11-24T08:38:39.576Z,40.53
2022-11-24T08:41:08.059Z,45.27
2022-11-24T08:43:35.413Z,41.17
2022-11-24T08:46:03.110Z,44.10
2022-11-24T08:48:30.330Z,36.40
2022-11-24T08:50:57.894Z,37.03
2022-11-24T08:53:25.186Z,38.53
2022-11-24T08:55:52.363Z,33.40
2022-11-24T08:58:19.514Z,34.97
2022-11-24T09:00:46.647Z,31.30
2022-11-24T09:03:13.809Z,32.83
2022-11-24T09:05:51.582Z,40.47
2022-11-24T09:08:19.512Z,50.67
2022-11-24T09:10:46.827Z,222.60
2022-11-24T09:13:13.936Z,49.13
2022-11-24T09:15:41.062Z,31.30
2022-11-24T09:18:08.384Z,29.33
2022-11-24T09:20:35.551Z,30.70
2022-11-24T09:23:02.750Z,31.10
2022-11-24T09:25:29.898Z,29.60
2022-11-24T09:27:57.398Z,28.53
2022-11-24T09:30:24.496Z,35.87
2022-11-24T09:32:51.683Z,32.13
2022-11-24T09:35:18.796Z,34.43
2022-11-24T09:37:45.998Z,27.00
2022-11-24T09:40:14.275Z,28.97
2022-11-24T09:42:50.655Z,28.27
2022-11-24T09:46:04.479Z,25.70
2022-11-24T09:48:28.646Z,31.20
2022-11-24T09:50:55.770Z,36.43
2022-11-24T09:53:36.630Z,29.40
2022-11-24T09:56:06.237Z,27.90
2022-11-24T09:58:41.726Z,27.67
2022-11-24T10:01:12.847Z,26.90
2022-11-24T10:03:41.819Z,24.93
2022-11-24T10:06:27.898Z,28.37
2022-11-24T10:09:13.260Z,36.57
2022-11-24T10:11:44.432Z,40.73
2022-11-24T10:14:17.795Z,38.53
2022-11-24T10:16:51.458Z,35.30
2022-11-24T10:19:34.483Z,37.10
2022-11-24T10:22:15.460Z,33.80
2022-11-24T10:24:52.599Z,38.80
2022-11-24T10:27:23.995Z,32.10
2022-11-24T10:29:51.998Z,37.43
2022-11-24T10:32:27.684Z,43.57
2022-11-24T10:34:54.802Z,44.30
2022-11-24T10:37:27.184Z,50.27
2022-11-24T10:40:17.145Z,44.30
2022-11-24T10:42:53.945Z,36.20
2022-11-24T10:45:24.931Z,32.77
2022-11-24T10:47:52.037Z,41.53
2022-11-24T10:50:26.264Z,34.03
2022-11-24T10:53:11.961Z,32.63
2022-11-24T10:55:57.465Z,35.07
2022-11-24T10:58:26.739Z,42.23
2022-11-24T11:00:54.165Z,41.23
2022-11-24T11:03:25.093Z,43.90
2022-11-24T11:05:55.001Z,46.43
2022-11-24T11:08:26.275Z,35.90
2022-11-24T11:11:14.713Z,42.07
2022-11-24T11:13:56.869Z,40.93
2022-11-24T11:16:42.860Z,47.13
2022-11-24T11:22:22.656Z,37.67
2022-11-24T11:24:49.865Z,44.40
2022-11-24T11:27:20.907Z,41.63
2022-11-24T11:35:23.147Z,49.23
2022-11-24T11:37:50.316Z,72.10
2022-11-24T11:40:18.290Z,47.30
2022-11-24T11:43:01.794Z,36.37
2022-11-24T11:45:32.917Z,34.67
2022-11-24T11:48:03.273Z,36.50
2022-11-24T11:51:06.465Z,40.17
2022-11-24T11:53:45.028Z,51.87
2022-11-24T11:56:18.318Z,45.43
2022-11-24T11:58:48.188Z,43.70
2022-11-24T12:01:33.978Z,56.77
2022-11-24T12:04:21.522Z,54.07
2022-11-24T12:06:48.676Z,40.43
2022-11-24T12:09:20.675Z,34.93
2022-11-24T12:11:51.145Z,40.73
2022-11-24T12:14:31.075Z,39.87
2022-11-24T12:17:03.903Z,32.17
2022-11-24T12:19:30.995Z,38.67
2022-11-24T12:22:14.699Z,35.40
2022-11-24T12:24:48.105Z,37.53
2022-11-24T12:27:22.846Z,36.50
2022-11-24T12:30:07.031Z,41.40
2022-11-24T12:32:34.267Z,40.53
2022-11-24T12:35:08.814Z,31.67
2022-11-24T12:37:40.372Z,36.97
2022-11-24T12:40:15.822Z,34.37
2022-11-24T12:42:42.957Z,32.30
2022-11-24T12:45:12.972Z,34.27
2022-11-24T12:47:40.053Z,29.57
2022-11-24T12:50:07.191Z,28.97
2022-11-24T12:52:57.175Z,31.80
2022-11-24T12:55:25.845Z,36.10
2022-11-24T12:58:13.555Z,35.40
2022-11-24T13:00:43.743Z,37.53
2022-11-24T13:03:28.962Z,42.17
2022-11-24T13:06:14.231Z,49.97
2022-11-24T13:08:41.327Z,74.33
2022-11-24T13:11:23.983Z,50.23
2022-11-24T13:13:59.154Z,35.83
2022-11-24T13:16:41.084Z,32.53
2022-11-24T13:19:18.038Z,33.73
2022-11-24T13:21:50.311Z,31.07
2022-11-24T13:24:18.379Z,32.93
2022-11-24T13:26:48.342Z,40.87
2022-11-24T13:29:31.753Z,33.00
2022-11-24T13:32:18.815Z,30.00
2022-11-24T13:34:46.979Z,34.33
2022-11-24T13:37:31.376Z,39.13
2022-11-24T13:40:17.017Z,31.90
2022-11-24T13:43:07.660Z,29.67
2022-11-24T13:45:41.056Z,28.87
2022-11-24T13:48:21.233Z,31.50
2022-11-24T13:50:52.143Z,35.40
2022-11-24T13:53:19.458Z,34.30
2022-11-24T13:55:58.085Z,38.83
2022-11-24T13:58:27.395Z,39.13
2022-11-24T14:01:09.614Z,38.83
2022-11-24T14:03:36.685Z,32.70
2022-11-24T14:06:03.990Z,31.47
2022-11-24T14:08:32.175Z,26.80
2022-11-24T14:10:59.686Z,31.43
2022-11-24T14:13:27.409Z,27.90
2022-11-24T14:16:09.838Z,30.13
2022-11-24T14:18:37.635Z,29.20
2022-11-24T14:21:23.856Z,30.47
2022-11-24T14:23:58.457Z,28.87
2022-11-24T14:26:29.804Z,29.03
2022-11-24T14:29:02.592Z,34.00
2022-11-24T14:31:29.818Z,33.77
2022-11-24T14:34:12.299Z,33.43
2022-11-24T14:36:39.833Z,31.30
2022-11-24T14:39:06.927Z,37.23
2022-11-24T14:41:34.175Z,30.90
2022-11-24T14:44:12.087Z,28.93
2022-11-24T14:46:39.235Z,27.23
2022-11-24T14:49:06.352Z,26.73
2022-11-24T14:51:34.525Z,25.63
2022-11-24T14:54:02.807Z,27.40
2022-11-24T14:56:30.641Z,28.43
2022-11-24T14:58:58.002Z,26.93
2022-11-24T15:01:28.268Z,28.30
2022-11-24T15:04:26.540Z,35.57
2022-11-24T15:07:02.362Z,34.73
2022-11-24T15:09:31.141Z,36.77
2022-11-24T15:11:58.271Z,48.23
2022-11-24T15:14:39.907Z,48.73
2022-11-24T15:17:07.010Z,29.37
2022-11-24T15:19:34.688Z,33.10
2022-11-24T15:22:01.851Z,33.00
2022-11-24T15:24:28.957Z,31.37
2022-11-24T15:27:00.071Z,52.37
2022-11-24T15:29:27.268Z,43.87
2022-11-24T15:31:54.545Z,37.83
2022-11-24T15:34:21.728Z,25.80
2022-11-24T15:36:48.880Z,34.80
2022-11-24T15:39:15.987Z,33.93
2022-11-24T15:41:43.143Z,31.30
2022-11-24T15:44:10.323Z,31.33
2022-11-24T15:46:40.277Z,34.67
2022-11-24T15:49:07.524Z,27.80
2022-11-24T15:51:34.731Z,30.87
2022-11-24T15:54:02.166Z,31.33
2022-11-24T15:56:35.664Z,35.60
2022-11-24T15:59:02.946Z,41.30
2022-11-24T16:01:31.714Z,35.77
2022-11-24T16:03:59.050Z,39.07
2022-11-24T16:06:26.225Z,37.17
2022-11-24T16:08:53.774Z,35.93
2022-11-24T16:11:21.085Z,40.57
2022-11-24T16:13:52.323Z,41.07
2022-11-24T16:16:20.923Z,51.47
2022-11-24T16:18:48.073Z,49.67
2022-11-24T16:21:15.260Z,54.67
2022-11-24T16:23:42.523Z,74.57
2022-11-24T16:26:10.115Z,98.40
2022-11-24T16:28:37.274Z,99.87
2022-11-24T16:31:04.549Z,120.87
2022-11-24T16:33:31.741Z,90.37
2022-11-24T16:35:58.906Z,95.47
2022-11-24T16:38:26.087Z,89.60
2022-11-24T16:40:53.588Z,98.27
2022-11-24T16:43:20.790Z,101.90
2022-11-24T16:45:48.804Z,91.67
2022-11-24T16:48:15.930Z,83.03
2022-11-24T16:50:43.025Z,81.70
2022-11-24T16:53:10.167Z,96.03
2022-11-24T16:55:37.265Z,164.80
2022-11-24T16:58:05.163Z,149.37
2022-11-24T17:00:32.353Z,91.57
2022-11-24T17:02:59.450Z,71.00
2022-11-24T17:05:26.610Z,97.33
2022-11-24T17:07:53.872Z,92.80
2022-11-24T17:10:21.000Z,109.87
2022-11-24T17:12:48.088Z,82.37
2022-11-24T17:15:32.220Z,81.33
2022-11-24T17:18:23.391Z,69.40
2022-11-24T17:20:48.107Z,73.10
2022-11-24T17:23:15.838Z,63.77
2022-11-24T17:25:42.969Z,69.17
2022-11-24T17:28:10.092Z,73.03
2022-11-24T17:30:38.135Z,100.63
2022-11-24T17:33:05.234Z,91.53
2022-11-24T17:35:34.215Z,107.00
2022-11-24T17:38:01.531Z,107.40
2022-11-24T17:40:29.597Z,117.03
2022-11-24T17:43:00.285Z,117.93
2022-11-24T17:45:27.757Z,108.23
2022-11-24T17:47:55.073Z,107.67
2022-11-24T17:50:25.618Z,159.53
2022-11-24T17:52:53.316Z,185.77
2022-11-24T17:55:20.434Z,203.67
2022-11-24T17:57:47.585Z,238.30
2022-11-24T18:00:15.102Z,220.43
2022-11-24T18:02:42.246Z,212.87
2022-11-24T18:05:09.608Z,155.77
2022-11-24T18:07:37.051Z,168.13
2022-11-24T18:10:04.449Z,154.77
2022-11-24T18:12:31.607Z,307.17
2022-11-24T18:14:58.739Z,324.63
2022-11-24T18:17:25.848Z,250.90
2022-11-24T18:19:52.988Z,190.27
2022-11-24T18:22:36.662Z,150.90
2022-11-24T18:25:07.353Z,282.83
2022-11-24T18:27:34.463Z,280.77
2022-11-24T18:30:02.739Z,270.50
2022-11-24T18:32:29.874Z,202.60
2022-11-24T18:34:56.972Z,220.77
2022-11-24T18:37:24.065Z,129.53
2022-11-24T18:39:51.189Z,92.37
2022-11-24T18:42:18.277Z,95.40
2022-11-24T18:44:48.601Z,116.87
2022-11-24T18:47:18.233Z,91.73
2022-11-24T18:49:45.346Z,104.57
2022-11-24T18:52:12.442Z,108.73
2022-11-24T18:54:39.578Z,107.20
2022-11-24T18:57:06.660Z,109.40
2022-11-24T18:59:33.843Z,94.20
2022-11-24T19:02:01.111Z,94.33
2022-11-24T19:04:28.283Z,95.33
2022-11-24T19:06:55.423Z,126.13
2022-11-24T19:09:22.927Z,121.30
2022-11-24T19:11:50.031Z,92.40
2022-11-24T19:14:17.820Z,86.47
2022-11-24T19:16:45.189Z,89.00
2022-11-24T19:19:12.750Z,66.77
2022-11-24T19:21:40.103Z,65.07
2022-11-24T19:24:07.727Z,66.63
2022-11-24T19:26:35.255Z,75.90
2022-11-24T19:29:03.081Z,88.90
2022-11-24T19:31:30.269Z,148.03
2022-11-24T19:33:59.620Z,340.77
2022-11-24T19:36:26.827Z,199.73
2022-11-24T19:38:54.849Z,118.00
2022-11-24T19:41:23.802Z,140.23
2022-11-24T19:43:53.379Z,110.73
2022-11-24T19:46:20.741Z,123.20
2022-11-24T19:48:50.231Z,123.20
2022-11-24T19:51:18.957Z,105.17
2022-11-24T19:53:46.313Z,110.63
2022-11-24T19:56:14.595Z,131.57
2022-11-24T19:58:41.819Z,102.20
2022-11-24T20:01:13.015Z,109.37
2022-11-24T20:03:40.547Z,100.93
2022-11-24T20:06:08.861Z,125.20
2022-11-24T20:08:36.267Z,130.63
2022-11-24T20:11:13.177Z,103.23
2022-11-24T20:13:41.023Z,83.03
2022-11-24T20:16:11.400Z,82.97
2022-11-24T20:18:42.010Z,114.63
2022-11-24T20:21:10.098Z,103.47
2022-11-24T20:23:37.202Z,109.93
2022-11-24T20:26:13.981Z,133.00
2022-11-24T20:28:41.390Z,131.73
2022-11-24T20:31:09.619Z,134.70
2022-11-24T20:33:36.896Z,126.90
2022-11-24T20:36:10.625Z,149.63
2022-11-24T20:38:37.944Z,142.53
2022-11-24T20:41:08.987Z,154.73
2022-11-24T20:43:36.710Z,152.13
2022-11-24T20:46:10.816Z,149.20
2022-11-24T20:48:37.968Z,161.30
2022-11-24T20:51:15.090Z,157.57
2022-11-24T20:53:42.219Z,163.00
2022-11-24T20:56:13.116Z,157.43
2022-11-24T20:58:40.275Z,177.40
2022-11-24T21:01:11.358Z,172.47
2022-11-24T21:03:43.053Z,202.67
2022-11-24T21:06:10.904Z,191.57
2022-11-24T21:08:38.230Z,187.20
2022-11-24T21:11:06.424Z,198.00
2022-11-24T21:13:34.061Z,208.93
2022-11-24T21:16:01.492Z,192.63
2022-11-24T21:18:28.634Z,223.40
2022-11-24T21:20:55.786Z,236.00
2022-11-24T21:23:22.886Z,233.80
2022-11-24T21:25:49.990Z,252.90
2022-11-24T21:28:17.110Z,217.03
2022-11-24T21:30:44.220Z,235.97
2022-11-24T21:33:11.648Z,218.67
2022-11-24T21:35:38.817Z,271.63
2022-11-24T21:38:05.905Z,254.10
2022-11-24T21:40:32.995Z,257.27
2022-11-24T21:43:00.154Z,261.70
2022-11-24T21:45:29.159Z,263.27
2022-11-24T21:48:00.106Z,259.23
2022-11-24T21:50:27.231Z,226.63
2022-11-24T21:52:55.538Z,205.70
2022-11-24T21:55:25.261Z,240.60
2022-11-24T21:57:52.387Z,231.63
2022-11-24T22:00:19.789Z,259.60
2022-11-24T22:02:47.405Z,233.57
2022-11-24T22:05:14.618Z,229.23
2022-11-24T22:07:41.783Z,199.50
2022-11-24T22:10:09.212Z,214.43
2022-11-24T22:12:36.332Z,224.00
2022-11-24T22:15:03.442Z,235.50
2022-11-24T22:17:31.184Z,209.17
2022-11-24T22:19:58.371Z,193.87
2022-11-24T22:22:25.464Z,215.17
2022-11-24T22:24:52.578Z,242.90
2022-11-24T22:27:19.695Z,239.93
2022-11-24T22:29:50.073Z,238.07
2022-11-24T22:32:21.064Z,271.13
2022-11-24T22:34:48.161Z,260.80
2022-11-24T22:37:15.306Z,244.90
2022-11-24T22:39:42.463Z,210.13
2022-11-24T22:42:09.599Z,225.73
2022-11-24T22:44:36.876Z,277.43
2022-11-24T22:47:04.203Z,382.97
2022-11-24T22:49:31.331Z,347.57
2022-11-24T22:51:58.420Z,359.90
2022-11-24T22:54:25.570Z,302.93
2022-11-24T22:56:52.736Z,327.80
2022-11-24T22:59:19.862Z,312.90
2022-11-24T23:01:46.998Z,304.70
2022-11-24T23:04:14.197Z,301.33
2022-11-24T23:06:41.386Z,320.00
2022-11-24T23:09:08.564Z,307.20
2022-11-24T23:11:37.966Z,291.60
2022-11-24T23:14:05.810Z,307.03
2022-11-24T23:16:33.014Z,268.47
2022-11-24T23:19:00.193Z,274.27
2022-11-24T23:21:31.293Z,263.67
2022-11-24T23:24:02.415Z,296.97
2022-11-24T23:26:30.420Z,331.33
2022-11-24T23:28:57.594Z,336.80
2022-11-24T23:31:28.616Z,362.00
2022-11-24T23:33:56.447Z,302.13
2022-11-24T23:36:23.602Z,318.70
2022-11-24T23:38:50.909Z,341.67
2022-11-24T23:41:18.920Z,321.60
2022-11-24T23:43:46.087Z,230.80
2022-11-24T23:46:14.248Z,228.83
2022-11-24T23:48:41.440Z,201.23
2022-11-24T23:51:09.254Z,172.63
2022-11-24T23:53:36.580Z,167.07
2022-11-24T23:56:03.680Z,177.23
2022-11-24T23:58:30.796Z,214.07
